Friars Hill, West Virginia
Current Conditions -  °F | °C
As of 11:35 AM on Monday 26 Jan 2015 (Local Time) from KLWB Reporting Station
Drizzle Drizzle  
Wind Chill: 37°   Ceiling: 2400
Heat Index: 37°   Visibility: 3mi
Dew Point: 36°   Wind: 0mph
Humidity: 93%   Direction: NA
Pressure: 29.65"   Gusts: NA
Location:  38.0307°N, 80.4756°W
Report Text: KLWB 261635Z AUTO 00000KT 3SM -DZ SCT014 OVC024 03/02 A2965 RMK AO2 T00300020
Loading
Personal Weather Stations






























Interactive Weather Map New forecast layout! Learn more

10-Day Weather Forecast

Advertisements
Track Severe Weather on mobile